createdAt,value
2023-03-22T00:01:28.801Z,10.75
2023-03-22T00:03:56.472Z,10.72
2023-03-22T00:06:24.890Z,10.72
2023-03-22T00:08:53.421Z,10.69
2023-03-22T00:11:24.240Z,10.69
2023-03-22T00:13:52.765Z,10.68
2023-03-22T00:16:21.920Z,10.66
2023-03-22T00:18:49.413Z,10.66
2023-03-22T00:21:17.551Z,10.68
2023-03-22T00:23:45.508Z,10.73
2023-03-22T00:26:14.917Z,10.73
2023-03-22T00:28:43.865Z,10.79
2023-03-22T00:31:11.371Z,10.83
2023-03-22T00:33:38.988Z,10.82
2023-03-22T00:36:12.101Z,10.83
2023-03-22T00:38:42.842Z,10.85
2023-03-22T00:41:20.865Z,10.86
2023-03-22T00:43:50.382Z,10.85
2023-03-22T00:46:21.088Z,10.89
2023-03-22T00:48:49.711Z,10.95
2023-03-22T00:51:18.098Z,10.95
2023-03-22T00:53:45.870Z,10.96
2023-03-22T00:56:16.641Z,10.96
2023-03-22T00:58:49.677Z,10.99
2023-03-22T01:01:17.553Z,11.02
2023-03-22T01:03:45.503Z,11.03
2023-03-22T01:06:16.610Z,10.99
2023-03-22T01:08:44.452Z,11.00
2023-03-22T01:11:12.434Z,11.00
2023-03-22T01:13:41.856Z,11.00
2023-03-22T01:16:10.590Z,10.99
2023-03-22T01:18:38.246Z,10.97
2023-03-22T01:21:06.661Z,10.99
2023-03-22T01:23:34.845Z,10.95
2023-03-22T01:26:02.934Z,10.97
2023-03-22T01:28:30.760Z,10.95
2023-03-22T01:31:02.618Z,10.96
2023-03-22T01:33:31.037Z,10.93
2023-03-22T01:35:59.030Z,10.96
2023-03-22T01:38:27.117Z,10.93
2023-03-22T01:40:58.802Z,10.96
2023-03-22T01:43:28.209Z,10.97
2023-03-22T01:45:57.930Z,11.03
2023-03-22T01:48:34.990Z,11.04
2023-03-22T01:51:29.282Z,11.04
2023-03-22T01:54:32.986Z,11.04
2023-03-22T01:57:03.973Z,11.06
2023-03-22T01:59:41.755Z,11.09
2023-03-22T02:02:31.001Z,11.09
2023-03-22T02:05:09.818Z,11.09
2023-03-22T02:07:38.267Z,11.09
2023-03-22T02:10:19.497Z,11.07
2023-03-22T02:13:29.744Z,11.06
2023-03-22T02:16:23.050Z,11.06
2023-03-22T02:19:29.307Z,11.04
2023-03-22T02:22:39.431Z,11.06
2023-03-22T02:25:28.505Z,11.04
2023-03-22T02:28:20.709Z,11.04
2023-03-22T02:31:06.147Z,11.00
2023-03-22T02:34:08.210Z,10.99
2023-03-22T02:37:06.478Z,10.95
2023-03-22T02:40:07.510Z,10.92
2023-03-22T02:42:59.083Z,10.93
2023-03-22T02:45:43.750Z,10.91
2023-03-22T02:48:48.475Z,10.89
2023-03-22T02:51:24.690Z,10.85
2023-03-22T02:54:06.644Z,10.82
2023-03-22T02:56:39.446Z,10.83
2023-03-22T02:59:12.510Z,10.85
2023-03-22T03:01:52.292Z,10.85
2023-03-22T03:04:27.619Z,10.86
2023-03-22T03:07:04.452Z,10.83
2023-03-22T03:09:33.874Z,10.82
2023-03-22T03:12:01.313Z,10.82
2023-03-22T03:14:33.184Z,10.80
2023-03-22T03:17:38.129Z,10.79
2023-03-22T03:20:14.962Z,10.77
2023-03-22T03:22:55.008Z,10.73
2023-03-22T03:25:43.622Z,10.72
2023-03-22T03:28:23.031Z,10.68
2023-03-22T03:31:03.058Z,10.68
2023-03-22T03:33:35.704Z,10.69
2023-03-22T03:36:18.465Z,10.69
2023-03-22T03:38:52.320Z,10.72
2023-03-22T03:41:29.019Z,10.71
2023-03-22T03:43:58.822Z,10.68
2023-03-22T03:46:29.299Z,10.65
2023-03-22T03:48:58.796Z,10.61
2023-03-22T03:51:28.267Z,10.56
2023-03-22T03:53:55.821Z,10.51
2023-03-22T03:56:23.730Z,10.48
2023-03-22T03:58:52.009Z,10.44
2023-03-22T04:01:20.774Z,10.44
2023-03-22T04:04:03.536Z,10.35
2023-03-22T04:06:39.610Z,10.34
2023-03-22T04:09:12.094Z,10.33
2023-03-22T04:11:44.815Z,10.30
2023-03-22T04:14:14.272Z,10.30
2023-03-22T04:16:41.820Z,10.27
2023-03-22T04:19:13.390Z,10.28
2023-03-22T04:21:40.910Z,10.25
2023-03-22T04:24:10.456Z,10.25
2023-03-22T04:26:42.276Z,10.30
2023-03-22T04:29:23.014Z,10.28
2023-03-22T04:31:54.874Z,10.25
2023-03-22T04:34:43.402Z,10.17
2023-03-22T04:37:19.715Z,10.11
2023-03-22T04:40:09.258Z,10.01
2023-03-22T04:42:45.797Z,9.96
2023-03-22T04:45:18.750Z,9.94
2023-03-22T04:47:52.601Z,9.94
2023-03-22T04:50:20.017Z,10.03
2023-03-22T04:52:52.071Z,10.14
2023-03-22T04:55:19.944Z,10.28
2023-03-22T04:57:47.489Z,10.35
2023-03-22T05:00:15.491Z,10.40
2023-03-22T05:02:44.276Z,10.44
2023-03-22T05:05:20.906Z,10.44
2023-03-22T05:07:49.837Z,10.40
2023-03-22T05:10:17.487Z,10.41
2023-03-22T05:12:45.360Z,10.48
2023-03-22T05:15:33.854Z,10.64
2023-03-22T05:18:03.920Z,10.83
2023-03-22T05:20:31.380Z,11.09
2023-03-22T05:23:13.556Z,11.45
2023-03-22T05:25:45.265Z,11.83
2023-03-22T05:28:19.609Z,12.10
2023-03-22T05:31:05.622Z,12.29
2023-03-22T05:33:42.805Z,12.32
2023-03-22T05:36:13.904Z,12.33
2023-03-22T05:39:00.438Z,12.33
2023-03-22T05:41:27.963Z,12.20
2023-03-22T05:43:55.475Z,12.16
2023-03-22T05:46:22.892Z,12.33
2023-03-22T05:49:13.219Z,14.76
2023-03-22T05:51:42.683Z,17.19
2023-03-22T05:54:12.795Z,18.59
2023-03-22T05:56:47.398Z,19.62
2023-03-22T05:59:15.630Z,20.73
2023-03-22T06:01:43.091Z,20.15
2023-03-22T06:04:23.578Z,18.91
2023-03-22T06:07:11.699Z,18.65
2023-03-22T06:09:39.498Z,18.01
2023-03-22T06:12:12.129Z,19.55
2023-03-22T06:14:40.788Z,21.56
2023-03-22T06:17:22.664Z,22.76
2023-03-22T06:19:53.040Z,23.50
2023-03-22T06:22:21.829Z,23.63
2023-03-22T06:24:50.889Z,23.93
2023-03-22T06:27:25.933Z,24.05
2023-03-22T06:29:54.886Z,23.87
2023-03-22T06:32:26.708Z,24.44
2023-03-22T06:34:55.845Z,25.29
2023-03-22T06:37:25.319Z,25.17
2023-03-22T06:39:53.874Z,25.32
2023-03-22T06:42:24.597Z,26.10
2023-03-22T06:45:01.989Z,26.93
2023-03-22T06:47:33.587Z,27.24
2023-03-22T06:50:15.997Z,27.19
2023-03-22T06:53:01.370Z,27.55
2023-03-22T06:55:33.187Z,27.85
2023-03-22T06:58:02.291Z,27.89
2023-03-22T07:00:30.861Z,27.98
2023-03-22T07:02:59.913Z,27.92
2023-03-22T07:06:04.991Z,26.82
2023-03-22T07:08:37.080Z,26.89
2023-03-22T07:11:06.669Z,27.02
2023-03-22T07:13:34.810Z,27.20
2023-03-22T07:16:08.448Z,28.01
2023-03-22T07:18:40.676Z,28.97
2023-03-22T07:21:08.544Z,28.29
2023-03-22T07:23:38.638Z,27.86
2023-03-22T07:26:10.791Z,27.82
2023-03-22T07:28:41.608Z,28.73
2023-03-22T07:31:13.542Z,29.23
2023-03-22T07:34:01.530Z,29.59
2023-03-22T07:36:32.969Z,29.16
2023-03-22T07:39:02.030Z,29.30
2023-03-22T07:41:33.449Z,29.98
2023-03-22T07:44:19.198Z,29.55
2023-03-22T07:47:05.489Z,30.05
2023-03-22T07:49:40.156Z,30.27
2023-03-22T07:52:15.971Z,30.08
2023-03-22T07:54:43.694Z,30.25
2023-03-22T07:57:11.118Z,29.39
2023-03-22T07:59:47.943Z,27.94
2023-03-22T08:02:16.290Z,28.42
2023-03-22T08:04:55.022Z,28.15
2023-03-22T08:07:38.081Z,28.26
2023-03-22T08:10:06.298Z,29.16
2023-03-22T08:12:36.595Z,27.88
2023-03-22T08:15:14.464Z,27.91
2023-03-22T08:17:43.109Z,28.04
2023-03-22T08:20:18.489Z,25.85
2023-03-22T08:22:51.556Z,26.42
2023-03-22T08:25:29.573Z,27.54
2023-03-22T08:28:05.715Z,28.05
2023-03-22T08:30:33.133Z,26.86
2023-03-22T08:33:00.675Z,25.70
2023-03-22T08:35:28.103Z,24.40
2023-03-22T08:37:56.898Z,22.78
2023-03-22T08:40:30.414Z,21.14
2023-03-22T08:43:01.524Z,20.07
2023-03-22T08:45:30.427Z,19.77
2023-03-22T08:48:06.318Z,19.47
2023-03-22T08:50:47.669Z,19.23
2023-03-22T08:53:24.102Z,19.09
2023-03-22T08:56:02.278Z,19.71
2023-03-22T08:59:01.193Z,19.97
2023-03-22T09:02:01.765Z,20.05
2023-03-22T09:04:29.508Z,19.74
2023-03-22T09:06:57.655Z,19.97
2023-03-22T09:09:25.107Z,20.14
2023-03-22T09:11:54.842Z,20.26
2023-03-22T09:14:22.244Z,19.97
2023-03-22T09:16:52.159Z,19.91
2023-03-22T09:19:20.813Z,19.88
2023-03-22T09:21:49.967Z,19.70
2023-03-22T09:24:27.570Z,20.07
2023-03-22T09:26:58.622Z,20.41
2023-03-22T09:29:26.238Z,20.20
2023-03-22T09:31:53.755Z,20.28
2023-03-22T09:34:27.128Z,20.18
2023-03-22T09:36:57.509Z,19.63
2023-03-22T09:39:29.981Z,19.15
2023-03-22T09:42:05.563Z,18.80
2023-03-22T09:44:45.344Z,18.67
2023-03-22T09:47:44.214Z,18.65
2023-03-22T09:50:31.369Z,18.75
2023-03-22T09:53:00.777Z,18.70
2023-03-22T09:55:48.704Z,18.67
2023-03-22T09:58:27.885Z,18.51
2023-03-22T10:01:02.632Z,18.46
2023-03-22T10:04:11.938Z,18.50
2023-03-22T10:06:45.609Z,18.53
2023-03-22T10:09:41.982Z,18.83
2023-03-22T10:12:18.210Z,19.77
2023-03-22T10:15:06.124Z,21.21
2023-03-22T10:17:36.451Z,22.30
2023-03-22T10:20:31.338Z,23.03
2023-03-22T10:23:03.192Z,23.75
2023-03-22T10:25:38.592Z,24.16
2023-03-22T10:28:34.748Z,23.67
2023-03-22T10:31:05.229Z,22.48
2023-03-22T10:33:43.002Z,21.37
2023-03-22T10:36:16.516Z,20.60
2023-03-22T10:38:57.858Z,19.95
2023-03-22T10:41:27.245Z,19.52
2023-03-22T10:44:01.468Z,19.11
2023-03-22T10:46:39.176Z,18.72
2023-03-22T10:49:16.275Z,18.51
2023-03-22T10:51:50.936Z,18.67
2023-03-22T10:54:21.553Z,19.98
2023-03-22T10:56:48.948Z,21.32
2023-03-22T10:59:51.909Z,22.71
2023-03-22T11:02:32.700Z,22.98
2023-03-22T11:05:05.877Z,22.52
2023-03-22T11:07:42.860Z,22.12
2023-03-22T11:10:10.634Z,22.20
2023-03-22T11:12:48.117Z,21.54
2023-03-22T11:15:38.929Z,22.20
2023-03-22T11:18:16.606Z,22.06
2023-03-22T11:21:12.440Z,23.29
2023-03-22T11:24:05.433Z,23.73
2023-03-22T11:26:39.207Z,23.66
2023-03-22T11:29:19.132Z,22.87
2023-03-22T11:32:00.399Z,22.14
2023-03-22T11:34:31.739Z,21.49
2023-03-22T11:37:07.650Z,20.93
2023-03-22T11:39:35.038Z,20.14
2023-03-22T11:42:06.397Z,19.59
2023-03-22T11:44:37.883Z,19.46
2023-03-22T11:47:11.697Z,19.60
2023-03-22T11:49:50.521Z,20.24
2023-03-22T11:52:23.607Z,20.41
2023-03-22T11:54:52.335Z,20.31
2023-03-22T11:57:29.684Z,20.63
2023-03-22T12:00:20.547Z,21.15
2023-03-22T12:02:59.228Z,21.45
2023-03-22T12:05:32.015Z,21.55
2023-03-22T12:08:44.990Z,21.78
2023-03-22T12:11:28.256Z,21.23
2023-03-22T12:14:16.297Z,20.72
2023-03-22T12:16:57.383Z,20.45
2023-03-22T12:19:33.392Z,20.21
2023-03-22T12:22:01.213Z,20.26
2023-03-22T12:24:32.379Z,20.53
2023-03-22T12:27:47.712Z,21.17
2023-03-22T12:30:22.868Z,21.44
2023-03-22T12:32:58.680Z,21.85
2023-03-22T12:35:33.320Z,21.90
2023-03-22T12:38:39.252Z,21.90
2023-03-22T12:41:25.346Z,21.58
2023-03-22T12:43:58.866Z,21.55
2023-03-22T12:46:53.340Z,21.44
2023-03-22T12:49:36.067Z,21.44
2023-03-22T12:52:23.441Z,21.62
2023-03-22T12:54:53.465Z,21.56
2023-03-22T12:57:21.186Z,21.35
2023-03-22T12:59:55.249Z,21.49
2023-03-22T13:02:32.701Z,21.75
2023-03-22T13:05:06.758Z,21.58
2023-03-22T13:07:47.688Z,21.88
2023-03-22T13:10:42.336Z,21.47
2023-03-22T13:13:12.884Z,21.30
2023-03-22T13:16:14.658Z,20.86
2023-03-22T13:18:45.290Z,20.08
2023-03-22T13:21:26.505Z,19.94
2023-03-22T13:23:53.960Z,20.03
2023-03-22T13:26:34.999Z,20.01
2023-03-22T13:29:15.400Z,20.01
2023-03-22T13:31:53.704Z,20.24
2023-03-22T13:34:40.893Z,20.52
2023-03-22T13:37:17.756Z,20.35
2023-03-22T13:39:53.102Z,19.83
2023-03-22T13:42:29.635Z,19.76
2023-03-22T13:45:03.955Z,19.63
2023-03-22T13:47:46.837Z,19.50
2023-03-22T13:50:28.155Z,19.16
2023-03-22T13:53:08.094Z,18.97
2023-03-22T13:56:00.890Z,18.83
2023-03-22T13:58:48.243Z,18.61
2023-03-22T14:01:28.093Z,18.53
2023-03-22T14:04:02.077Z,18.57
2023-03-22T14:06:35.324Z,18.65
2023-03-22T14:09:16.316Z,18.87
2023-03-22T14:11:57.389Z,18.95
2023-03-22T14:14:32.596Z,19.11
2023-03-22T14:17:20.391Z,19.20
2023-03-22T14:19:51.735Z,19.20
